createdAt,value
2022-11-03T00:01:55.817Z,95455.41
2022-11-03T00:04:22.083Z,95445.55
2022-11-03T00:06:48.418Z,95454.25
2022-11-03T00:09:14.768Z,95460.47
2022-11-03T00:11:41.103Z,95466.20
2022-11-03T00:14:07.450Z,95466.20
2022-11-03T00:16:33.787Z,95469.75
2022-11-03T00:19:00.130Z,95460.21
2022-11-03T00:21:26.452Z,95460.21
2022-11-03T00:23:52.787Z,95444.14
2022-11-03T00:26:19.125Z,95471.50
2022-11-03T00:28:45.462Z,95475.84
2022-11-03T00:31:11.804Z,95468.92
2022-11-03T00:33:38.142Z,95455.89
2022-11-03T00:36:04.475Z,95466.68
2022-11-03T00:38:30.827Z,95468.92
2022-11-03T00:40:57.160Z,95468.45
2022-11-03T00:43:23.502Z,95472.33
2022-11-03T00:45:49.832Z,95457.05
2022-11-03T00:48:16.184Z,95457.05
2022-11-03T00:50:42.526Z,95472.90
2022-11-03T00:53:08.976Z,95483.23
2022-11-03T00:55:35.260Z,95476.45
2022-11-03T00:58:02.681Z,95461.39
2022-11-03T01:00:29.035Z,95483.70
2022-11-03T01:02:55.384Z,95480.78
2022-11-03T01:05:21.744Z,95482.07
2022-11-03T01:07:48.136Z,95478.53
2022-11-03T01:10:14.438Z,95473.03
2022-11-03T01:12:40.780Z,95473.03
2022-11-03T01:15:07.115Z,95479.95
2022-11-03T01:17:33.453Z,95479.95
2022-11-03T01:19:59.783Z,95479.13
2022-11-03T01:22:26.128Z,95475.72
2022-11-03T01:24:52.468Z,95479.73
2022-11-03T01:27:18.821Z,95478.90
2022-11-03T01:29:45.146Z,95473.73
2022-11-03T01:32:11.509Z,95480.05
2022-11-03T01:34:37.852Z,95460.46
2022-11-03T01:37:04.223Z,95460.46
2022-11-03T01:39:30.598Z,95471.72
2022-11-03T01:41:56.914Z,95475.26
2022-11-03T01:44:23.254Z,95484.99
2022-11-03T01:46:49.589Z,95481.25
2022-11-03T01:49:15.939Z,95478.31
2022-11-03T01:51:42.320Z,95478.67
2022-11-03T01:54:08.659Z,95481.36
2022-11-03T01:56:34.995Z,95479.13
2022-11-03T01:59:01.337Z,95479.13
2022-11-03T02:01:27.789Z,95482.28
2022-11-03T02:03:54.030Z,95464.22
2022-11-03T02:06:20.360Z,95484.86
2022-11-03T02:08:46.707Z,95484.86
2022-11-03T02:11:13.055Z,95484.86
2022-11-03T02:13:39.400Z,95492.52
2022-11-03T02:16:05.735Z,95484.86
2022-11-03T02:18:32.070Z,95489.20
2022-11-03T02:20:58.404Z,95455.74
2022-11-03T02:23:24.746Z,95455.74
2022-11-03T02:25:51.091Z,95479.37
2022-11-03T02:28:17.430Z,95484.53
2022-11-03T02:30:43.782Z,95485.83
2022-11-03T02:33:10.119Z,95479.83
2022-11-03T02:35:36.458Z,95474.08
2022-11-03T02:38:02.802Z,95482.88
2022-11-03T02:40:29.129Z,95481.59
2022-11-03T02:42:55.478Z,95481.59
2022-11-03T02:45:21.812Z,95492.74
2022-11-03T02:47:48.191Z,95485.46
2022-11-03T02:50:14.523Z,95485.92
2022-11-03T02:52:40.862Z,95488.51
2022-11-03T02:55:07.196Z,95479.70
2022-11-03T02:57:33.541Z,95488.87
2022-11-03T02:59:59.880Z,95483.34
2022-11-03T03:02:26.341Z,95480.40
2022-11-03T03:04:52.559Z,95479.47
2022-11-03T03:07:18.965Z,95477.02
2022-11-03T03:09:45.308Z,95476.52
2022-11-03T03:12:11.651Z,95476.52
2022-11-03T03:14:37.983Z,95485.23
2022-11-03T03:17:04.339Z,95481.92
2022-11-03T03:19:30.679Z,95481.13
2022-11-03T03:21:59.198Z,95484.64
2022-11-03T03:24:25.543Z,95478.05
2022-11-03T03:26:51.889Z,95481.23
2022-11-03T03:29:18.224Z,95464.55
2022-11-03T03:31:44.558Z,95464.55
2022-11-03T03:34:24.075Z,95479.94
2022-11-03T03:36:37.224Z,95479.94
2022-11-03T03:39:03.561Z,95476.89
2022-11-03T03:41:29.908Z,95483.81
2022-11-03T03:43:56.252Z,95481.10
2022-11-03T03:46:22.598Z,95481.10
2022-11-03T03:48:48.933Z,95492.02
2022-11-03T03:51:15.287Z,95490.37
2022-11-03T03:53:41.630Z,95483.58
2022-11-03T03:56:07.972Z,95490.86
2022-11-03T03:58:34.302Z,95485.70
2022-11-03T04:01:00.700Z,95485.20
2022-11-03T04:03:27.064Z,95490.86
2022-11-03T04:05:53.373Z,95490.86
2022-11-03T04:08:19.706Z,95485.33
2022-11-03T04:10:46.072Z,95489.31
2022-11-03T04:13:12.420Z,95490.73
2022-11-03T04:15:38.767Z,95494.60
2022-11-03T04:18:05.278Z,95496.59
2022-11-03T04:20:31.443Z,95496.59
2022-11-03T04:22:57.783Z,95503.51
2022-11-03T04:25:24.146Z,95498.84
2022-11-03T04:27:50.475Z,95493.88
2022-11-03T04:30:16.822Z,95493.88
2022-11-03T04:32:43.164Z,95487.92
2022-11-03T04:35:09.535Z,95487.09
2022-11-03T04:37:35.872Z,95486.13
2022-11-03T04:40:02.214Z,95492.12
2022-11-03T04:42:28.547Z,95485.20
2022-11-03T04:44:54.897Z,95494.60
2022-11-03T04:47:21.233Z,95493.08
2022-11-03T04:49:47.575Z,95490.83
2022-11-03T04:52:13.923Z,95490.83
2022-11-03T04:54:40.301Z,95486.39
2022-11-03T04:57:06.635Z,95490.00
2022-11-03T04:59:32.976Z,95490.83
2022-11-03T05:01:59.518Z,95486.95
2022-11-03T05:04:25.693Z,95490.73
2022-11-03T05:06:52.041Z,95494.70
2022-11-03T05:09:18.390Z,95497.19
2022-11-03T05:11:44.741Z,95498.02
2022-11-03T05:14:11.085Z,95502.72
2022-11-03T05:16:37.432Z,95500.12
2022-11-03T05:19:03.781Z,95500.12
2022-11-03T05:21:30.119Z,95507.61
2022-11-03T05:23:56.452Z,95499.17
2022-11-03T05:26:22.788Z,95499.17
2022-11-03T05:28:49.130Z,95508.08
2022-11-03T05:31:15.470Z,95513.04
2022-11-03T05:33:41.837Z,95516.65
2022-11-03T05:36:08.178Z,95511.39
2022-11-03T05:38:34.530Z,95517.38
2022-11-03T05:41:00.861Z,95519.96
2022-11-03T05:43:27.211Z,95527.11
2022-11-03T05:45:53.565Z,95527.11
2022-11-03T05:48:19.889Z,95528.41
2022-11-03T05:50:46.235Z,95532.28
2022-11-03T05:53:12.584Z,95538.50
2022-11-03T05:55:38.949Z,95546.84
2022-11-03T05:58:05.643Z,95542.14
2022-11-03T06:00:31.633Z,95545.92
2022-11-03T06:02:58.015Z,95553.66
2022-11-03T06:05:24.321Z,95552.84
2022-11-03T06:07:50.675Z,95555.78
2022-11-03T06:10:17.008Z,95556.84
2022-11-03T06:12:43.356Z,95554.16
2022-11-03T06:15:09.707Z,95558.27
2022-11-03T06:17:36.050Z,95561.18
2022-11-03T06:20:02.387Z,95561.18
2022-11-03T06:22:28.750Z,95565.78
2022-11-03T06:24:55.162Z,95566.84
2022-11-03T06:27:21.496Z,95567.17
2022-11-03T06:29:47.875Z,95576.58
2022-11-03T06:32:14.221Z,95569.98
2022-11-03T06:34:40.554Z,95563.30
2022-11-03T06:37:12.444Z,95563.30
2022-11-03T06:39:33.249Z,95554.62
2022-11-03T06:41:59.594Z,95580.75
2022-11-03T06:44:25.934Z,95570.13
2022-11-03T06:46:52.279Z,95570.13
2022-11-03T06:49:18.614Z,95586.95
2022-11-03T06:51:44.987Z,95589.80
2022-11-03T06:54:11.333Z,95588.73
2022-11-03T06:56:37.670Z,95582.05
2022-11-03T06:59:04.035Z,95577.80
2022-11-03T07:01:30.559Z,95563.46
2022-11-03T07:03:56.695Z,95576.87
2022-11-03T07:06:23.048Z,95576.87
2022-11-03T07:08:49.389Z,95571.59
2022-11-03T07:11:15.734Z,95569.02
2022-11-03T07:13:42.075Z,95562.42
2022-11-03T07:16:08.400Z,95586.63
2022-11-03T07:18:34.738Z,95574.31
2022-11-03T07:21:01.090Z,95574.31
2022-11-03T07:23:27.418Z,95566.06
2022-11-03T07:25:53.793Z,95554.93
2022-11-03T07:28:21.333Z,95568.88
2022-11-03T07:30:46.475Z,95569.59
2022-11-03T07:33:13.795Z,95553.05
2022-11-03T07:36:00.811Z,95551.26
2022-11-03T07:38:05.719Z,95551.26
2022-11-03T07:40:31.835Z,95543.52
2022-11-03T07:42:58.172Z,95543.52
2022-11-03T07:45:24.523Z,95563.36
2022-11-03T07:47:50.886Z,95545.62
2022-11-03T07:50:17.228Z,95545.38
2022-11-03T07:52:43.569Z,95536.33
2022-11-03T07:55:09.935Z,95559.94
2022-11-03T07:57:36.274Z,95559.94
2022-11-03T08:00:05.424Z,95545.99
2022-11-03T08:02:28.987Z,95541.29
2022-11-03T08:04:55.337Z,95541.29
2022-11-03T08:07:21.689Z,95557.95
2022-11-03T08:09:48.065Z,95533.98
2022-11-03T08:12:14.419Z,95530.31
2022-11-03T08:14:42.973Z,95530.31
2022-11-03T08:17:09.324Z,95545.94
2022-11-03T08:19:35.668Z,95530.33
2022-11-03T08:22:02.029Z,95519.02
2022-11-03T08:24:28.383Z,95519.98
2022-11-03T08:26:54.715Z,95527.91
2022-11-03T08:29:22.365Z,95527.91
2022-11-03T08:31:47.425Z,95512.01
2022-11-03T08:34:13.804Z,95571.53
2022-11-03T08:36:40.127Z,95520.56
2022-11-03T08:39:06.478Z,95520.56
2022-11-03T08:41:32.837Z,95520.16
2022-11-03T08:43:59.191Z,95519.30
2022-11-03T08:46:25.534Z,95514.75
2022-11-03T08:48:51.881Z,95519.19
2022-11-03T08:51:18.249Z,95514.17
2022-11-03T08:53:44.650Z,95518.22
2022-11-03T08:56:13.038Z,95518.86
2022-11-03T08:58:37.298Z,95516.44
2022-11-03T09:01:03.644Z,95519.20
2022-11-03T09:03:30.161Z,95515.17
2022-11-03T09:06:03.264Z,95516.44
2022-11-03T09:10:51.586Z,95510.54
2022-11-03T09:13:17.943Z,95511.98
2022-11-03T09:15:44.282Z,95511.10
2022-11-03T09:18:10.936Z,95509.64
2022-11-03T09:20:37.006Z,95481.70
2022-11-03T09:23:03.376Z,95499.82
2022-11-03T09:25:29.721Z,95496.58
2022-11-03T09:27:56.069Z,95475.70
2022-11-03T09:30:22.437Z,95475.70
2022-11-03T09:32:48.797Z,95486.13
2022-11-03T09:35:15.146Z,95485.44
2022-11-03T09:37:41.487Z,95481.23
2022-11-03T09:40:07.862Z,95476.25
2022-11-03T09:42:34.323Z,95475.78
2022-11-03T09:45:00.552Z,95471.32
2022-11-03T09:47:26.895Z,95470.38
2022-11-03T09:49:53.228Z,95467.08
2022-11-03T09:52:19.606Z,95462.98
2022-11-03T09:54:45.941Z,95470.80
2022-11-03T09:57:12.298Z,95458.91
2022-11-03T09:59:38.702Z,95455.50
2022-11-03T10:02:05.146Z,95452.66
2022-11-03T10:04:31.400Z,95444.00
2022-11-03T10:06:57.747Z,95441.98
2022-11-03T10:09:24.077Z,95436.67
2022-11-03T10:11:50.419Z,95438.47
2022-11-03T10:14:16.754Z,95427.52
2022-11-03T10:16:43.097Z,95429.84
2022-11-03T10:19:09.430Z,95427.16
2022-11-03T10:21:35.782Z,95421.37
2022-11-03T10:24:02.118Z,95418.84
2022-11-03T10:26:28.465Z,95416.30
2022-11-03T10:28:54.811Z,95412.06
2022-11-03T10:31:21.176Z,95402.68
2022-11-03T10:33:47.489Z,95395.28
2022-11-03T10:36:13.832Z,95395.38
2022-11-03T10:38:40.160Z,95398.91
2022-11-03T10:41:06.502Z,95388.56
2022-11-03T10:43:32.839Z,95390.58
2022-11-03T10:45:59.189Z,95379.55
2022-11-03T10:48:25.529Z,95377.28
2022-11-03T10:50:51.875Z,95371.17
2022-11-03T10:53:18.353Z,95370.34
2022-11-03T10:55:44.582Z,95365.60
2022-11-03T10:58:11.094Z,95361.85
2022-11-03T11:00:37.333Z,95356.03
2022-11-03T11:03:03.771Z,95354.88
2022-11-03T11:05:29.998Z,95348.47
2022-11-03T11:07:56.484Z,95343.59
2022-11-03T11:10:22.749Z,95325.39
2022-11-03T11:12:49.096Z,95340.44
2022-11-03T11:15:15.456Z,95332.31
2022-11-03T11:17:41.785Z,95335.37
2022-11-03T11:20:08.111Z,95329.94
2022-11-03T11:22:34.466Z,95326.52
2022-11-03T11:25:00.814Z,95327.34
2022-11-03T11:27:27.198Z,95326.98
2022-11-03T11:29:53.538Z,95321.34
2022-11-03T11:32:19.873Z,95319.94
2022-11-03T11:34:46.226Z,95316.06
2022-11-03T11:37:12.567Z,95312.86
2022-11-03T11:39:38.940Z,95303.14
2022-11-03T11:42:05.301Z,95299.30
2022-11-03T11:44:31.654Z,95301.06
2022-11-03T11:46:57.996Z,95297.89
2022-11-03T11:49:24.337Z,95296.62
2022-11-03T11:51:50.682Z,95290.77
2022-11-03T11:54:18.152Z,95288.39
2022-11-03T11:56:43.375Z,95287.30
2022-11-03T11:59:09.711Z,95283.67
2022-11-03T12:01:36.125Z,95284.14
2022-11-03T12:04:02.494Z,95247.47
2022-11-03T12:06:28.802Z,95272.34
2022-11-03T12:08:55.087Z,95266.61
2022-11-03T12:11:21.481Z,95269.24
2022-11-03T12:13:47.811Z,95269.39
2022-11-03T12:16:14.142Z,95259.83
2022-11-03T12:18:44.727Z,95259.67
2022-11-03T12:21:06.961Z,95256.98
2022-11-03T12:23:33.294Z,95259.34
2022-11-03T12:25:59.680Z,95254.80
2022-11-03T12:28:26.030Z,95255.63
2022-11-03T12:30:52.432Z,95249.75
2022-11-03T12:33:18.715Z,95244.81
2022-11-03T12:35:45.100Z,95246.22
2022-11-03T12:38:11.440Z,95240.58
2022-11-03T12:40:37.784Z,95243.28
2022-11-03T12:43:04.394Z,95237.69
2022-11-03T12:45:30.473Z,95240.22
2022-11-03T12:47:56.817Z,95234.58
2022-11-03T12:50:23.173Z,95233.55
2022-11-03T12:52:49.513Z,95191.95
2022-11-03T12:55:15.909Z,95230.34
2022-11-03T12:57:42.195Z,95223.50
2022-11-03T13:00:08.563Z,95223.15
2022-11-03T13:02:35.070Z,95221.27
2022-11-03T13:05:01.255Z,95216.05
2022-11-03T13:07:33.473Z,95212.07
2022-11-03T13:09:53.952Z,95215.22
2022-11-03T13:12:20.282Z,95215.26
2022-11-03T13:14:48.731Z,95213.23
2022-11-03T13:17:13.004Z,95208.58
2022-11-03T13:19:39.397Z,95209.00
2022-11-03T13:22:05.746Z,95213.93
2022-11-03T13:24:32.096Z,95207.06
2022-11-03T13:26:58.461Z,95194.77
2022-11-03T13:29:24.802Z,95203.80
2022-11-03T13:31:51.140Z,95201.59
2022-11-03T13:34:17.485Z,95204.55
2022-11-03T13:36:43.841Z,95201.97
2022-11-03T13:39:10.208Z,95201.44
2022-11-03T13:41:36.582Z,95200.08
2022-11-03T13:44:02.945Z,95197.55
2022-11-03T13:46:29.309Z,95202.49
2022-11-03T13:51:22.147Z,95195.52
2022-11-03T13:56:20.855Z,95179.53
2022-11-03T14:01:07.802Z,95194.99
2022-11-03T14:06:00.699Z,95191.52
2022-11-03T14:08:27.060Z,95193.61
2022-11-03T14:10:53.423Z,95195.25
2022-11-03T14:13:19.789Z,95196.84
2022-11-03T14:15:46.206Z,95200.94
2022-11-03T14:18:12.675Z,95195.82
2022-11-03T14:20:39.039Z,95194.44
2022-11-03T14:23:05.844Z,95168.08
2022-11-03T14:25:31.918Z,95168.08
2022-11-03T14:27:58.326Z,95197.22
2022-11-03T14:30:24.665Z,95199.05
2022-11-03T14:32:54.195Z,95184.63
2022-11-03T14:35:17.388Z,95194.66
2022-11-03T14:37:43.751Z,95198.94
2022-11-03T14:40:10.117Z,95195.85
2022-11-03T14:42:36.486Z,95193.88
2022-11-03T14:45:02.911Z,95196.92
2022-11-03T14:47:29.278Z,95192.80
2022-11-03T14:49:55.636Z,95178.29
2022-11-03T14:52:22.003Z,95178.29
2022-11-03T14:54:48.366Z,95191.58
2022-11-03T14:57:14.745Z,95199.69
2022-11-03T14:59:41.106Z,95198.98
2022-11-03T15:02:07.601Z,95181.75
2022-11-03T15:04:35.020Z,95204.15
2022-11-03T15:07:00.194Z,95198.84
2022-11-03T15:09:26.552Z,95198.84
2022-11-03T15:11:52.910Z,95204.44
2022-11-03T15:14:19.269Z,95188.80
2022-11-03T15:16:45.644Z,95186.52
2022-11-03T15:19:13.319Z,95181.89
2022-11-03T15:21:38.392Z,95181.89
2022-11-03T15:26:31.116Z,95197.86
2022-11-03T15:28:57.479Z,95196.09
2022-11-03T15:31:23.834Z,95194.86
2022-11-03T15:33:50.199Z,95188.36
2022-11-03T15:36:18.075Z,95191.50
2022-11-03T15:38:42.933Z,95184.98
2022-11-03T15:54:05.618Z,95187.67
2022-11-03T15:56:31.984Z,95186.38
2022-11-03T15:58:58.373Z,95189.23
2022-11-03T16:01:24.886Z,95186.75
2022-11-03T16:03:51.172Z,95185.11
2022-11-03T16:06:17.548Z,95177.37
2022-11-03T16:08:45.625Z,95195.09
2022-11-03T16:11:10.295Z,95201.69
2022-11-03T16:13:36.661Z,95212.61
2022-11-03T16:16:03.016Z,95210.41
2022-11-03T16:18:29.389Z,95211.91
2022-11-03T16:20:55.739Z,95201.66
2022-11-03T16:23:22.133Z,95201.34
2022-11-03T16:25:48.502Z,95209.19
2022-11-03T16:28:14.856Z,95209.19
2022-11-03T16:30:41.248Z,95195.45
2022-11-03T16:33:07.650Z,95185.27
2022-11-03T16:35:34.000Z,95215.09
2022-11-03T16:38:00.403Z,95213.42
2022-11-03T16:40:26.759Z,95212.81
2022-11-03T16:42:53.113Z,95211.98
2022-11-03T16:45:19.503Z,95220.20
2022-11-03T16:47:45.879Z,95213.18
2022-11-03T16:50:12.266Z,95208.40
2022-11-03T16:52:38.628Z,95217.55
2022-11-03T16:55:05.998Z,95206.89
2022-11-03T16:57:31.346Z,95217.90
2022-11-03T16:59:57.835Z,95215.10
2022-11-03T17:02:24.101Z,95217.69
2022-11-03T17:04:50.449Z,95193.91
2022-11-03T17:07:17.011Z,95199.86
2022-11-03T17:09:43.298Z,95217.59
2022-11-03T17:12:09.663Z,95214.80
2022-11-03T17:14:36.060Z,95201.67
2022-11-03T17:17:02.412Z,95210.81
2022-11-03T17:19:28.806Z,95210.81
2022-11-03T17:21:55.202Z,95201.66
2022-11-03T17:24:21.561Z,95203.53
2022-11-03T17:26:47.945Z,95211.49
2022-11-03T17:29:14.303Z,95211.49
2022-11-03T17:31:40.687Z,95217.63
2022-11-03T17:34:07.081Z,95188.73
2022-11-03T17:36:33.494Z,95214.34
2022-11-03T17:38:59.838Z,95215.63
2022-11-03T17:41:26.225Z,95209.98
2022-11-03T17:43:52.581Z,95211.64
2022-11-03T17:46:18.976Z,95211.64
2022-11-03T17:48:45.336Z,95197.47
2022-11-03T17:51:11.703Z,95205.75
2022-11-03T17:53:38.052Z,95187.12
2022-11-03T17:58:30.811Z,95205.28
2022-11-03T18:00:57.212Z,95192.88
2022-11-03T18:03:23.548Z,95192.88
2022-11-03T18:05:49.897Z,95210.34
2022-11-03T18:08:16.269Z,95211.07
2022-11-03T18:10:42.654Z,95212.36
2022-11-03T18:13:09.033Z,95198.50
2022-11-03T18:15:35.465Z,95194.38
2022-11-03T18:18:01.854Z,95203.57
2022-11-03T18:20:28.209Z,95204.87
2022-11-03T18:22:54.601Z,95204.87
2022-11-03T18:25:20.991Z,95187.86
2022-11-03T18:27:47.344Z,95197.95
2022-11-03T18:30:13.745Z,95196.19
2022-11-03T18:32:40.167Z,95177.00
2022-11-03T18:35:06.521Z,95182.17
2022-11-03T18:37:32.892Z,95182.17
2022-11-03T18:39:59.278Z,95192.97
2022-11-03T18:42:25.632Z,95175.97
2022-11-03T18:44:51.991Z,95194.58
2022-11-03T18:47:18.375Z,95178.33
2022-11-03T18:49:44.767Z,95163.13
2022-11-03T18:52:11.118Z,95163.13
2022-11-03T18:54:37.484Z,95181.23
2022-11-03T18:57:03.849Z,95190.84
2022-11-03T18:59:30.237Z,95179.16
2022-11-03T19:01:56.790Z,95179.16
2022-11-03T19:04:23.014Z,95192.39
2022-11-03T19:06:49.377Z,95194.51
2022-11-03T19:09:15.738Z,95194.51
2022-11-03T19:11:42.134Z,95198.28
2022-11-03T19:14:08.491Z,95203.09
2022-11-03T19:16:34.853Z,95200.87
2022-11-03T19:19:03.343Z,95192.66
2022-11-03T19:21:29.710Z,95192.66
2022-11-03T19:23:58.483Z,95198.28
2022-11-03T19:26:22.422Z,95191.72
2022-11-03T19:28:48.781Z,95188.53
2022-11-03T19:31:15.142Z,95177.51
2022-11-03T19:33:41.509Z,95175.86
2022-11-03T19:36:07.873Z,95175.86
2022-11-03T19:38:34.259Z,95172.95
2022-11-03T19:41:00.614Z,95172.95
2022-11-03T19:43:31.804Z,95175.53
2022-11-03T19:45:53.355Z,95177.16
2022-11-03T19:48:24.564Z,95165.93
2022-11-03T19:50:46.095Z,95165.93
2022-11-03T19:53:12.491Z,95179.05
2022-11-03T19:55:38.844Z,95186.45
2022-11-03T19:58:05.486Z,95182.93
2022-11-03T20:00:31.560Z,95177.77
2022-11-03T20:02:57.918Z,95181.64
2022-11-03T20:05:24.281Z,95178.05
2022-11-03T20:07:50.639Z,95178.05
2022-11-03T20:10:17.027Z,95189.17
2022-11-03T20:12:43.391Z,95185.88
2022-11-03T20:15:09.745Z,95185.88
2022-11-03T20:17:36.105Z,95173.25
2022-11-03T20:20:02.486Z,95173.25
2022-11-03T20:22:28.825Z,95186.59
2022-11-03T20:24:55.149Z,95179.81
2022-11-03T20:27:21.485Z,95172.28
2022-11-03T20:29:47.821Z,95157.18
2022-11-03T20:32:14.167Z,95174.50
2022-11-03T20:34:40.503Z,95174.50
2022-11-03T20:37:06.841Z,95168.30
2022-11-03T20:39:33.174Z,95168.77
2022-11-03T20:41:59.511Z,95165.86
2022-11-03T20:44:25.848Z,95167.97
2022-11-03T20:46:52.189Z,95170.31
2022-11-03T20:49:18.547Z,95168.44
2022-11-03T20:51:44.887Z,95168.44
2022-11-03T20:54:11.231Z,95172.10
2022-11-03T20:56:37.573Z,95178.20
2022-11-03T20:59:04.005Z,95169.63
2022-11-03T21:01:30.533Z,95169.63
2022-11-03T21:03:59.759Z,95179.70
2022-11-03T21:06:22.980Z,95171.28
2022-11-03T21:08:49.347Z,95163.53
2022-11-03T21:11:16.900Z,95157.79
2022-11-03T21:13:42.034Z,95158.47
2022-11-03T21:16:23.539Z,95161.41
2022-11-03T21:18:34.783Z,95166.58
2022-11-03T21:21:01.089Z,95162.70
2022-11-03T21:23:27.470Z,95145.46
2022-11-03T21:25:53.787Z,95165.86
2022-11-03T21:28:20.148Z,95164.58
2022-11-03T21:30:46.509Z,95166.00
2022-11-03T21:33:12.854Z,95166.00
2022-11-03T21:35:39.197Z,95169.41
2022-11-03T21:38:05.953Z,95168.23
2022-11-03T21:40:31.909Z,95166.83
2022-11-03T21:42:58.336Z,95168.23
2022-11-03T21:45:24.670Z,95159.08
2022-11-03T21:47:51.002Z,95152.38
2022-11-03T21:50:17.370Z,95146.39
2022-11-03T21:52:43.756Z,95143.59
2022-11-03T21:55:10.147Z,95143.59
2022-11-03T21:57:36.440Z,95148.14
2022-11-03T22:00:02.811Z,95146.50
2022-11-03T22:02:29.181Z,95147.67
2022-11-03T22:04:55.531Z,95148.26
2022-11-03T22:07:21.891Z,95138.75
2022-11-03T22:09:48.288Z,95140.98
2022-11-03T22:12:14.640Z,95136.63
2022-11-03T22:14:41.036Z,95135.48
2022-11-03T22:17:07.398Z,95129.85
2022-11-03T22:19:33.741Z,95124.80
2022-11-03T22:22:00.105Z,95109.92
2022-11-03T22:24:26.458Z,95122.22
2022-11-03T22:26:52.821Z,95121.86
2022-11-03T22:29:19.172Z,95121.39
2022-11-03T22:31:45.576Z,95121.39
2022-11-03T22:34:11.927Z,95125.27
2022-11-03T22:36:38.283Z,95107.13
2022-11-03T22:39:04.679Z,95107.13
2022-11-03T22:41:31.043Z,95113.78
2022-11-03T22:43:57.397Z,95113.78
2022-11-03T22:46:23.767Z,95115.55
2022-11-03T22:48:50.122Z,95102.27
2022-11-03T22:51:16.496Z,95102.27
2022-11-03T22:53:42.884Z,95095.81
2022-11-03T22:56:09.246Z,95097.72
2022-11-03T22:58:35.609Z,95095.96
2022-11-03T23:01:02.041Z,95096.89
2022-11-03T23:03:28.345Z,95096.07
2022-11-03T23:05:54.743Z,95095.49
2022-11-03T23:08:21.174Z,95098.19
2022-11-03T23:10:47.496Z,95095.14
2022-11-03T23:13:13.874Z,95091.73
2022-11-03T23:15:40.239Z,95091.84
2022-11-03T23:18:06.626Z,95093.48
2022-11-03T23:20:33.022Z,95091.05
2022-11-03T23:22:59.369Z,95096.54
2022-11-03T23:25:25.743Z,95098.80
2022-11-03T23:27:52.212Z,95100.55
2022-11-03T23:30:18.479Z,95097.01
2022-11-03T23:32:44.846Z,95093.74
2022-11-03T23:35:11.247Z,95095.86
2022-11-03T23:37:37.609Z,95097.62
2022-11-03T23:40:03.978Z,95094.21
2022-11-03T23:42:30.337Z,95095.50
2022-11-03T23:44:56.708Z,95095.03
2022-11-03T23:47:23.072Z,95092.45
2022-11-03T23:49:49.450Z,95094.09
2022-11-03T23:52:15.868Z,95091.30
2022-11-03T23:54:42.226Z,95103.60
2022-11-03T23:57:08.633Z,95095.17
2022-11-03T23:59:35.095Z,95085.31
